createdAt,value
2019-05-21T00:01:56.239Z,90.62
2019-05-21T00:06:03.054Z,91.30
2019-05-21T00:10:10.252Z,92.17
2019-05-21T00:14:17.139Z,92.90
2019-05-21T00:18:23.904Z,93.44
2019-05-21T00:22:30.701Z,95.23
2019-05-21T00:26:37.475Z,94.65
2019-05-21T00:31:37.455Z,94.24
2019-05-21T00:36:41.022Z,93.77
2019-05-21T00:41:40.976Z,95.21
2019-05-21T00:45:47.708Z,95.22
2019-05-21T00:49:54.424Z,95.14
2019-05-21T00:54:01.184Z,94.96
2019-05-21T00:58:08.028Z,93.78
2019-05-21T01:02:14.831Z,94.11
2019-05-21T01:06:21.570Z,93.94
2019-05-21T01:10:28.468Z,94.99
2019-05-21T01:14:35.138Z,94.28
2019-05-21T01:18:41.866Z,94.43
2019-05-21T01:22:48.652Z,95.25
2019-05-21T01:26:55.355Z,95.45
2019-05-21T01:31:02.143Z,95.59
2019-05-21T01:35:17.090Z,95.72
2019-05-21T01:39:17.603Z,95.77
2019-05-21T01:43:24.333Z,95.62
2019-05-21T01:47:31.056Z,95.43
2019-05-21T01:51:37.752Z,95.47
2019-05-21T01:55:44.485Z,94.99
2019-05-21T01:59:51.354Z,94.39
2019-05-21T02:03:58.119Z,94.10
2019-05-21T02:08:04.859Z,93.57
2019-05-21T02:12:11.603Z,94.10
2019-05-21T02:16:18.385Z,94.18
2019-05-21T02:20:25.102Z,94.37
2019-05-21T02:24:31.818Z,94.23
2019-05-21T02:28:38.612Z,94.53
2019-05-21T02:32:45.435Z,93.94
2019-05-21T02:36:52.800Z,94.72
2019-05-21T02:40:59.828Z,94.76
2019-05-21T02:45:08.263Z,94.91
2019-05-21T02:49:14.947Z,94.37
2019-05-21T02:53:21.886Z,95.28
2019-05-21T02:57:39.107Z,95.56
2019-05-21T03:01:51.809Z,95.07
2019-05-21T03:06:13.155Z,95.57
2019-05-21T03:10:07.345Z,95.09
2019-05-21T03:14:14.122Z,95.65
2019-05-21T03:18:20.866Z,94.89
2019-05-21T03:22:27.715Z,94.35
2019-05-21T03:26:34.446Z,94.35
2019-05-21T03:30:41.178Z,94.97
2019-05-21T03:34:47.942Z,94.43
2019-05-21T03:38:54.644Z,93.85
2019-05-21T03:43:01.336Z,94.35
2019-05-21T03:47:08.159Z,94.94
2019-05-21T03:51:14.832Z,94.57
2019-05-21T03:55:21.561Z,94.24
2019-05-21T03:59:28.268Z,95.79
2019-05-21T04:03:35.220Z,95.26
2019-05-21T04:07:42.039Z,95.23
2019-05-21T04:11:52.892Z,94.03
2019-05-21T04:16:26.241Z,94.01
2019-05-21T04:20:33.219Z,94.96
2019-05-21T04:24:45.122Z,93.86
2019-05-21T04:28:52.276Z,94.54
2019-05-21T04:32:58.985Z,94.73
2019-05-21T04:37:11.100Z,94.05
2019-05-21T04:41:14.110Z,94.07
2019-05-21T04:45:20.980Z,95.75
2019-05-21T04:49:27.821Z,95.04
2019-05-21T04:53:34.473Z,94.75
2019-05-21T04:57:41.277Z,95.68
2019-05-21T05:01:49.406Z,95.71
2019-05-21T05:05:56.160Z,94.46
2019-05-21T05:10:02.933Z,95.98
2019-05-21T05:14:09.676Z,95.40
2019-05-21T05:18:16.361Z,96.04
2019-05-21T05:22:23.165Z,93.85
2019-05-21T05:26:29.934Z,94.70
2019-05-21T05:30:36.711Z,94.93
2019-05-21T05:34:43.459Z,94.86
2019-05-21T05:38:50.206Z,94.61
2019-05-21T05:42:56.965Z,93.65
2019-05-21T05:47:03.746Z,93.97
2019-05-21T05:51:10.867Z,94.10
2019-05-21T05:55:17.749Z,93.41
2019-05-21T05:59:24.702Z,94.08
2019-05-21T06:03:31.486Z,90.00
2019-05-21T06:07:38.304Z,91.45
2019-05-21T06:11:45.064Z,91.47
2019-05-21T06:15:51.812Z,92.39
2019-05-21T06:19:58.743Z,91.85
2019-05-21T06:24:05.500Z,94.32
2019-05-21T06:28:12.861Z,92.82
2019-05-21T06:32:19.553Z,93.19
2019-05-21T06:36:26.279Z,92.48
2019-05-21T06:40:33.563Z,92.31
2019-05-21T06:44:41.374Z,93.57
2019-05-21T06:48:48.212Z,91.91
2019-05-21T06:52:55.022Z,93.36
2019-05-21T06:57:01.755Z,93.38
2019-05-21T07:01:08.533Z,92.67
2019-05-21T07:05:16.804Z,90.27
2019-05-21T07:09:23.539Z,91.91
2019-05-21T07:13:31.100Z,92.28
2019-05-21T07:17:38.073Z,90.90
2019-05-21T07:21:44.844Z,91.17
2019-05-21T07:25:51.539Z,91.38
2019-05-21T07:29:58.246Z,91.99
2019-05-21T07:34:05.078Z,91.75
2019-05-21T07:38:11.881Z,92.08
2019-05-21T07:42:18.746Z,90.95
2019-05-21T07:46:25.566Z,89.51
2019-05-21T07:50:32.315Z,89.31
2019-05-21T07:54:39.121Z,88.66
2019-05-21T07:58:45.856Z,87.15
2019-05-21T08:02:52.619Z,87.93
2019-05-21T08:06:59.386Z,87.62
2019-05-21T08:11:06.300Z,86.92
2019-05-21T08:15:14.269Z,88.17
2019-05-21T08:19:22.040Z,87.06
2019-05-21T08:23:28.803Z,87.13
2019-05-21T08:27:35.605Z,85.97
2019-05-21T08:31:42.571Z,83.71
2019-05-21T08:35:49.333Z,83.92
2019-05-21T08:39:56.061Z,83.64
2019-05-21T08:44:02.900Z,83.86
2019-05-21T08:48:09.610Z,83.73
2019-05-21T08:52:16.494Z,83.66
2019-05-21T08:56:23.290Z,82.82
2019-05-21T09:00:30.364Z,82.27
2019-05-21T09:04:46.459Z,83.54
2019-05-21T09:08:45.465Z,81.97
2019-05-21T09:12:52.212Z,82.44
2019-05-21T09:16:58.917Z,80.98
2019-05-21T09:21:05.974Z,80.71
2019-05-21T09:25:13.909Z,81.43
2019-05-21T09:29:20.593Z,81.96
2019-05-21T09:33:27.296Z,82.45
2019-05-21T09:37:33.998Z,83.09
2019-05-21T09:41:40.790Z,80.01
2019-05-21T09:45:47.538Z,79.62
2019-05-21T09:49:54.895Z,79.82
2019-05-21T09:54:01.681Z,79.13
2019-05-21T09:58:33.464Z,79.83
2019-05-21T10:02:41.723Z,80.83
2019-05-21T10:06:48.464Z,77.91
2019-05-21T10:10:55.260Z,78.38
2019-05-21T10:15:02.241Z,76.87
2019-05-21T10:19:10.081Z,76.02
2019-05-21T10:23:16.933Z,76.11
2019-05-21T10:27:23.710Z,76.36
2019-05-21T10:31:30.620Z,74.51
2019-05-21T10:35:37.382Z,75.82
2019-05-21T10:39:44.203Z,74.89
2019-05-21T10:43:50.979Z,74.13
2019-05-21T10:47:57.803Z,75.31
2019-05-21T10:52:04.957Z,74.71
2019-05-21T10:56:11.869Z,76.05
2019-05-21T11:00:22.859Z,77.82
2019-05-21T11:04:42.904Z,77.52
2019-05-21T11:08:49.730Z,75.65
2019-05-21T11:12:56.599Z,76.52
2019-05-21T11:17:03.573Z,76.37
2019-05-21T11:21:10.400Z,76.67
2019-05-21T11:25:17.089Z,75.85
2019-05-21T11:29:23.884Z,76.37
2019-05-21T11:33:31.754Z,76.49
2019-05-21T11:37:38.558Z,74.56
2019-05-21T11:41:45.342Z,74.43
2019-05-21T11:45:52.040Z,74.83
2019-05-21T11:49:58.732Z,74.09
2019-05-21T11:54:05.599Z,74.00
2019-05-21T11:58:13.413Z,73.46
2019-05-21T12:02:20.140Z,73.33
2019-05-21T12:06:26.844Z,73.62
2019-05-21T12:10:33.624Z,72.23
2019-05-21T12:14:40.325Z,72.66
2019-05-21T12:18:47.229Z,71.73
2019-05-21T12:22:54.023Z,72.00
2019-05-21T12:27:03.589Z,73.59
2019-05-21T12:31:10.553Z,72.26
2019-05-21T12:35:17.531Z,72.26
2019-05-21T12:39:24.289Z,72.18
2019-05-21T12:43:31.551Z,73.13
2019-05-21T12:47:38.282Z,72.02
2019-05-21T12:51:45.156Z,72.28
2019-05-21T12:55:52.161Z,71.21
2019-05-21T12:59:58.966Z,72.24
2019-05-21T13:04:05.684Z,71.44
2019-05-21T13:08:12.365Z,70.62
2019-05-21T13:12:19.099Z,71.13
2019-05-21T13:16:25.841Z,68.96
2019-05-21T13:20:32.510Z,69.11
2019-05-21T13:24:39.343Z,69.31
2019-05-21T13:28:46.054Z,66.90
2019-05-21T13:32:52.785Z,68.20
2019-05-21T13:36:59.947Z,66.79
2019-05-21T13:41:07.029Z,66.59
2019-05-21T13:45:14.243Z,67.05
2019-05-21T13:49:21.063Z,66.94
2019-05-21T13:53:27.795Z,65.02
2019-05-21T13:57:34.591Z,64.92
2019-05-21T14:01:41.813Z,65.50
2019-05-21T14:05:48.894Z,66.36
2019-05-21T14:10:13.533Z,66.63
2019-05-21T14:14:04.293Z,66.34
2019-05-21T14:18:11.273Z,68.16
2019-05-21T14:22:18.429Z,67.77
2019-05-21T14:26:26.729Z,67.98
2019-05-21T14:30:34.476Z,67.44
2019-05-21T14:34:41.247Z,67.55
2019-05-21T14:38:48.057Z,67.45
2019-05-21T14:42:59.837Z,68.77
2019-05-21T14:47:03.752Z,68.27
2019-05-21T14:51:13.413Z,68.93
2019-05-21T14:55:19.257Z,68.93
2019-05-21T14:59:25.976Z,69.26
2019-05-21T15:03:35.590Z,69.69
2019-05-21T15:07:42.424Z,69.08
2019-05-21T15:11:49.180Z,70.36
2019-05-21T15:15:58.518Z,70.04
2019-05-21T15:20:12.129Z,70.96
2019-05-21T15:24:18.912Z,70.14
2019-05-21T15:28:25.795Z,70.28
2019-05-21T15:32:32.506Z,71.58
2019-05-21T15:36:39.239Z,71.14
2019-05-21T15:41:08.043Z,71.78
2019-05-21T15:45:02.662Z,70.75
2019-05-21T15:49:09.411Z,71.55
2019-05-21T15:53:16.671Z,71.70
2019-05-21T15:57:23.377Z,71.74
2019-05-21T16:01:40.234Z,72.16
2019-05-21T16:05:46.289Z,72.40
2019-05-21T16:09:53.147Z,72.24
2019-05-21T16:14:00.035Z,71.61
2019-05-21T16:18:06.881Z,71.29
2019-05-21T16:22:14.579Z,71.47
2019-05-21T16:26:23.406Z,71.34
2019-05-21T16:30:30.012Z,71.72
2019-05-21T16:34:36.940Z,71.20
2019-05-21T16:38:46.719Z,71.46
2019-05-21T16:42:53.442Z,72.06
2019-05-21T16:47:00.233Z,71.82
2019-05-21T16:51:07.083Z,72.00
2019-05-21T16:55:14.611Z,72.50
2019-05-21T16:59:21.612Z,71.94
2019-05-21T17:03:28.401Z,72.32
2019-05-21T17:07:35.176Z,72.29
2019-05-21T17:11:42.388Z,71.51
2019-05-21T17:15:50.520Z,71.88
2019-05-21T17:19:57.392Z,72.47
2019-05-21T17:24:04.163Z,72.66
2019-05-21T17:28:11.109Z,72.66
2019-05-21T17:32:17.984Z,73.02
2019-05-21T17:36:27.382Z,73.35
2019-05-21T17:40:34.490Z,73.11
2019-05-21T17:44:41.500Z,73.16
2019-05-21T17:48:48.427Z,73.63
2019-05-21T17:52:55.615Z,73.60
2019-05-21T17:57:02.327Z,73.63
2019-05-21T18:01:10.912Z,73.80
2019-05-21T18:05:19.160Z,74.21
2019-05-21T18:09:28.129Z,74.05
2019-05-21T18:13:35.749Z,74.19
2019-05-21T18:17:46.157Z,74.32
2019-05-21T18:21:52.915Z,74.07
2019-05-21T18:25:59.921Z,74.93
2019-05-21T18:30:07.849Z,75.19
2019-05-21T18:34:17.417Z,75.11
2019-05-21T18:38:24.098Z,75.51
2019-05-21T18:42:30.944Z,76.07
2019-05-21T18:46:38.083Z,76.25
2019-05-21T18:50:50.880Z,76.54
2019-05-21T18:55:02.299Z,76.78
2019-05-21T18:59:10.554Z,77.25
2019-05-21T19:03:25.167Z,77.46
2019-05-21T19:07:28.164Z,78.32
2019-05-21T19:11:35.018Z,78.15
2019-05-21T19:15:41.806Z,77.80
2019-05-21T19:19:55.201Z,78.28
2019-05-21T19:24:02.478Z,78.30
2019-05-21T19:28:09.564Z,78.45
2019-05-21T19:32:16.719Z,78.46
2019-05-21T19:36:23.775Z,78.89
2019-05-21T19:40:30.838Z,78.27
2019-05-21T19:44:39.291Z,77.76
2019-05-21T19:48:46.055Z,77.77
2019-05-21T19:52:52.846Z,78.26
2019-05-21T19:56:59.728Z,79.12
2019-05-21T20:01:07.899Z,78.86
2019-05-21T20:05:14.717Z,78.93
2019-05-21T20:09:33.663Z,78.68
2019-05-21T20:13:41.022Z,79.54
2019-05-21T20:17:52.274Z,79.59
2019-05-21T20:21:58.339Z,79.99
2019-05-21T20:26:06.173Z,79.54
2019-05-21T20:30:17.569Z,79.66
2019-05-21T20:34:24.835Z,79.33
2019-05-21T20:38:32.966Z,79.66
2019-05-21T20:42:41.146Z,80.32
2019-05-21T20:46:49.304Z,80.26
2019-05-21T20:50:56.818Z,79.71
2019-05-21T20:55:04.619Z,79.91
2019-05-21T20:59:12.462Z,79.63
2019-05-21T21:03:19.639Z,79.61
2019-05-21T21:07:26.650Z,79.99
2019-05-21T21:11:34.265Z,80.10
2019-05-21T21:15:42.772Z,80.27
2019-05-21T21:19:49.660Z,80.80
2019-05-21T21:23:58.333Z,80.62
2019-05-21T21:28:05.408Z,80.13
2019-05-21T21:32:12.448Z,79.64
2019-05-21T21:36:19.310Z,80.58
2019-05-21T21:40:26.216Z,80.00
2019-05-21T21:44:37.756Z,79.89
2019-05-21T21:48:45.705Z,80.10
2019-05-21T21:52:54.379Z,80.41
2019-05-21T21:57:01.335Z,79.66
2019-05-21T22:01:43.307Z,79.87
2019-05-21T22:05:51.403Z,79.70
2019-05-21T22:09:58.612Z,79.72
2019-05-21T22:14:05.960Z,80.00
2019-05-21T22:18:13.111Z,79.99
2019-05-21T22:22:19.897Z,80.08
2019-05-21T22:26:26.731Z,79.38
2019-05-21T22:30:35.435Z,79.53
2019-05-21T22:34:42.224Z,79.34
2019-05-21T22:38:50.117Z,79.69
2019-05-21T22:42:59.213Z,79.48
2019-05-21T22:47:07.059Z,79.34
2019-05-21T22:51:13.933Z,79.43
2019-05-21T22:55:20.962Z,79.89
2019-05-21T22:59:27.945Z,79.39
2019-05-21T23:03:37.798Z,79.29
2019-05-21T23:07:45.859Z,79.21
2019-05-21T23:11:52.711Z,79.15
2019-05-21T23:16:00.052Z,79.01
2019-05-21T23:20:28.026Z,79.02
2019-05-21T23:24:35.403Z,78.46
2019-05-21T23:28:44.880Z,78.93
2019-05-21T23:32:51.614Z,78.47
2019-05-21T23:36:58.917Z,78.38
2019-05-21T23:41:06.002Z,78.66
2019-05-21T23:45:15.037Z,79.04
2019-05-21T23:49:21.773Z,78.96
2019-05-21T23:53:28.591Z,78.37
2019-05-21T23:57:36.606Z,78.23
